Daily Summary

Last 30 Days

Daily Data | Pacific/Honolulu
as of 5/18/24 4:12 AM HST
Date Daily Max Temp (°F) Time of Max Temp Daily Min Temp (°F) Time of Min Temp Daily Rain (In) Season Precip (In) Wind Spd (mph) Daily Max Wind (mph) Time of Max Wind Max Wind Dir (°) Daily Solar Rad (Cal/cm2) Daily ETo (in) Dew Pt (°F) Max RH (%) Min RH (%) Max Press (inHg) Time of Max Press Min Press (inHg) Time of Min Press MinBV Day (V)
5/17/24 83.5 1430 72.2 0222 1.39 14.82 3.3 14.8 1105 S | 190 379 0.125 73.9 98 74 30.05 2231 29.90 0336 12.7
5/16/24 77.3 1850 72.0 0247 4.04 13.43 3.8 21.5 1902 SW | 227 107 0.038 72.5 97 87 29.96 2219 29.85 1624 12.7
5/15/24 81.3 1451 72.2 2204 0.55 9.39 4.5 18.8 1501 SSW | 209 374 0.123 72.1 94 76 30.03 0001 29.88 1623 12.7
5/14/24 81.7 1547 71.4 0549 1.23 8.84 3.5 16.7 0813 ENE | 71 496 0.160 70.9 94 70 30.08 0854 29.98 1628 12.6
5/13/24 81.7 0938 70.8 0358 0.04 7.61 3.2 15.0 1759 NE | 44 325 0.116 69.9 93 69 30.09 0012 30.00 1616 12.7
5/12/24 85.6 1337 71.6 0530 0.26 7.57 3.8 17.7 2130 NE | 49 565 0.194 68.8 90 59 30.11 2244 29.97 0339 12.7
5/11/24 81.3 1241 69.9 0400 0.00 7.31 5.4 22.1 1512 NE | 41 520 0.178 66.2 84 58 30.05 0939 29.94 1410 12.7
5/10/24 80.8 1753 71.2 0636 0.01 7.31 3.7 15.8 1512 SW | 222 572 0.182 68.3 93 58 30.03 2312 29.93 1732 12.7
5/9/24 83.4 1131 69.8 0638 0.21 7.30 4.0 16.8 1707 ENE | 72 357 0.128 68.1 91 62 30.05 0944 29.95 1702 12.7
5/8/24 81.1 1215 72.0 0533 0.00 7.09 6.4 24.1 1309 NNE | 25 519 0.184 66.4 84 59 30.08 0001 29.95 1616 12.7
5/7/24 79.8 1338 72.3 0059 0.02 7.09 8.8 25.0 1200 NNE | 33 666 0.220 66.4 84 63 30.12 0001 29.99 1658 12.7
5/6/24 77.6 1243 72.0 2129 0.04 7.07 9.6 29.6 1237 NE | 34 565 0.186 66.8 85 70 30.14 0006 30.02 1606 12.7
5/5/24 80.1 1308 72.0 0257 0.09 7.03 10.0 28.1 0706 E | 83 580 0.210 66.1 81 61 30.16 2235 30.03 0357 12.7
5/4/24 78.1 1334 72.0 0637 0.20 6.94 10.3 29.6 0034 ENE | 67 500 0.185 65.8 81 64 30.12 2239 30.01 0448 12.7
5/3/24 81.1 1224 73.8 2134 0.02 6.74 10.5 33.1 1553 NE | 43 589 0.220 65.8 79 61 30.09 0958 29.97 1603 12.6
5/2/24 80.3 1012 73.9 2105 0.02 6.72 7.6 24.1 2335 NE | 56 427 0.161 67.0 81 61 30.10 0920 29.99 1658 12.7
5/1/24 83.6 1211 73.0 0304 0.00 6.70 5.6 21.8 1708 NE | 38 572 0.202 68.0 92 58 30.10 2206 29.99 1708 12.7
4/30/24 86.0 1329 72.4 0624 0.16 6.70 3.6 14.5 1218 ENE | 75 573 0.197 68.3 92 54 30.09 2249 29.95 1618 12.6
4/29/24 82.8 1435 74.6 0634 0.00 6.54 5.9 23.2 1541 NNE | 29 476 0.171 68.1 78 63 30.08 2235 29.94 1604 12.7
4/28/24 83.0 1100 72.6 0455 0.00 6.54 6.0 21.5 1458 NE | 37 552 0.192 68.4 86 63 30.13 2216 30.01 1613 12.7
4/27/24 80.2 1037 71.2 0711 0.11 6.54 6.2 21.7 1123 NNE | 28 493 0.160 69.1 91 68 30.15 0001 30.02 1715 12.7
4/26/24 80.8 1334 73.1 0448 0.01 6.43 7.7 24.7 0835 ENE | 76 529 0.180 67.5 83 65 30.20 1029 30.08 1652 12.7
4/25/24 80.2 1328 73.8 0638 0.00 6.42 10.0 31.2 0031 ENE | 65 601 0.219 65.7 80 59 30.21 2155 30.10 1630 12.7
4/24/24 77.5 1132 72.5 0032 0.04 6.42 9.5 30.8 1503 NNE | 33 574 0.184 67.5 86 70 30.21 0904 30.09 1542 12.7
4/23/24 80.2 1313 70.2 0414 0.17 6.38 9.5 40.2 1440 NE | 40 611 0.212 65.9 89 59 30.19 2234 29.99 1612 12.7
4/22/24 80.3 1225 71.9 2057 0.06 6.21 10.2 29.4 0231 NE | 35 616 0.226 64.4 87 55 30.19 0004 30.06 1457 12.7
4/21/24 79.7 1241 72.8 0028 0.00 6.15 8.7 29.7 1253 NE | 45 516 0.194 64.1 76 58 30.20 2230 30.08 1700 12.7
4/20/24 79.8 1228 71.1 0326 0.02 6.15 9.4 31.4 1329 NNE | 29 659 0.224 64.9 85 60 30.18 2242 30.05 1609 12.7
4/19/24 78.1 1307 71.3 2315 0.08 6.13 8.2 25.1 1355 NE | 39 520 0.181 65.8 86 66 30.19 0928 30.07 1527 12.7
4/18/24 80.3 1337 69.7 0508 0.09 6.05 5.6 22.7 2119 NE | 38 451 0.157 66.4 91 60 30.18 2207 30.05 1517 12.7
Max 86.0 - 74.6 - 4.04 14.82 10.5 40.2 - - 666 0.226 73.9 98 87 30.21 - 30.10 - 12.7
Avg - - - - - - 6.8 - - - - - 67.6 - - - - - - -
Min 77.3 - 69.7 - 0.00 6.05 3.2 14.5 - - 107 0.038 64.1 76 54 29.96 - 29.85 - 12.6